Main page
METAR-TAF:

METAR-TAF

Airports :

Cornwall Airport Newquay

Newquay Cornwall, England

latitude: 50-26N, longitude: 005-00W, elevation: 119 m

Current weather observation

The report was made 10 minutes ago, at 15:20 UTC
Wind 12 kt from the West
Temperature 19°C
Humidity 78%
Pressure 1017 hPa
Visibility 10 km or more
Scattered clouds at a height of 3200 ft

METAR: EGHQ 231520Z 26012KT 9999 SCT032 19/15 Q1017

Time: 16:30 (15:30 UTC)

Forecast

The report was made 1 hour and 34 minutes ago, at 13:56 UTC
Forecast valid from 23 at 15 UTC to 23 at 21 UTC
Wind 9 kt from the West
Visibility 10 km or more
Scattered clouds at a height of 2000 ft

TAF: EGHQ 231356Z 2315/2321 27009KT 9999 SCT020

Weather observations and forecasts of more than 4000 airports (METAR and TAF reports).

The available stations are represented by yellow and red dots on the map.

Hover mouse over dot to see the name of the station.

Then click to see weather observations and forecasts.

To change the map : click on the green buttons with a black cross to zoom in, on the green button with a dash to zoom out, or on the green arrows for adjacent maps.


METAR-TAF: